Terminal Aerodrome Forecast
Issued by NWS Spokane, WA

Home | Current Version | Previous Version | Text Only | Print | Product List | Glossary On
Versions: 1 2 3 4 5 6 7 8 9 10 11 12 13 14
000
FTUS46 KOTX 271120
TAFGEG
TAF
KGEG 271120Z 2712/2812 14005KT P6SM FEW250
     FM271900 23006KT P6SM FEW060 FEW250
     FM280300 VRB04KT P6SM SKC=

USA.gov is the U.S. government's official web portal to all federal, state and local government web resources and services.